sensor_id;sensor_type;location;lat;lon;timestamp;P1;durP1;ratioP1;P2;durP2;ratioP2
3627;SDS011;1830;49.000;12.074;2023-03-13T00:00:48;46.10;;;29.40;;
3627;SDS011;1830;49.000;12.074;2023-03-13T00:03:16;46.67;;;29.13;;
3627;SDS011;1830;49.000;12.074;2023-03-13T00:05:42;45.10;;;30.03;;
3627;SDS011;1830;49.000;12.074;2023-03-13T00:08:11;43.03;;;29.07;;
3627;SDS011;1830;49.000;12.074;2023-03-13T00:10:37;41.80;;;28.83;;
3627;SDS011;1830;49.000;12.074;2023-03-13T00:13:05;46.40;;;27.97;;
3627;SDS011;1830;49.000;12.074;2023-03-13T00:15:33;49.20;;;28.33;;
3627;SDS011;1830;49.000;12.074;2023-03-13T00:18:00;37.97;;;27.63;;
3627;SDS011;1830;49.000;12.074;2023-03-13T00:20:26;42.93;;;26.97;;
3627;SDS011;1830;49.000;12.074;2023-03-13T00:22:53;39.67;;;27.13;;
3627;SDS011;1830;49.000;12.074;2023-03-13T00:25:21;33.97;;;24.00;;
3627;SDS011;1830;49.000;12.074;2023-03-13T00:27:48;44.03;;;25.70;;
3627;SDS011;1830;49.000;12.074;2023-03-13T00:30:15;41.30;;;27.03;;
3627;SDS011;1830;49.000;12.074;2023-03-13T00:32:42;46.07;;;27.27;;
3627;SDS011;1830;49.000;12.074;2023-03-13T00:35:11;44.53;;;28.90;;
3627;SDS011;1830;49.000;12.074;2023-03-13T00:37:37;42.90;;;26.83;;
3627;SDS011;1830;49.000;12.074;2023-03-13T00:40:05;39.33;;;27.77;;
3627;SDS011;1830;49.000;12.074;2023-03-13T00:42:34;38.00;;;27.23;;
3627;SDS011;1830;49.000;12.074;2023-03-13T00:45:02;46.17;;;28.23;;
3627;SDS011;1830;49.000;12.074;2023-03-13T00:47:29;42.07;;;26.87;;
3627;SDS011;1830;49.000;12.074;2023-03-13T00:49:56;43.47;;;28.73;;
3627;SDS011;1830;49.000;12.074;2023-03-13T00:52:22;42.03;;;28.00;;
3627;SDS011;1830;49.000;12.074;2023-03-13T00:54:52;40.27;;;25.20;;
3627;SDS011;1830;49.000;12.074;2023-03-13T00:57:19;43.40;;;28.87;;
3627;SDS011;1830;49.000;12.074;2023-03-13T00:59:47;42.83;;;26.80;;
3627;SDS011;1830;49.000;12.074;2023-03-13T01:02:14;42.13;;;26.27;;
3627;SDS011;1830;49.000;12.074;2023-03-13T01:04:41;44.43;;;27.00;;
3627;SDS011;1830;49.000;12.074;2023-03-13T01:07:07;37.13;;;26.40;;
3627;SDS011;1830;49.000;12.074;2023-03-13T01:09:34;42.73;;;27.57;;
3627;SDS011;1830;49.000;12.074;2023-03-13T01:12:01;41.97;;;26.53;;
3627;SDS011;1830;49.000;12.074;2023-03-13T01:14:28;40.90;;;26.13;;
3627;SDS011;1830;49.000;12.074;2023-03-13T01:16:56;39.77;;;27.47;;
3627;SDS011;1830;49.000;12.074;2023-03-13T01:19:23;43.83;;;28.10;;
3627;SDS011;1830;49.000;12.074;2023-03-13T01:21:49;42.30;;;27.43;;
3627;SDS011;1830;49.000;12.074;2023-03-13T01:24:16;39.30;;;27.80;;
3627;SDS011;1830;49.000;12.074;2023-03-13T01:26:44;43.63;;;26.80;;
3627;SDS011;1830;49.000;12.074;2023-03-13T01:29:11;40.27;;;27.60;;
3627;SDS011;1830;49.000;12.074;2023-03-13T01:31:38;39.70;;;26.57;;
3627;SDS011;1830;49.000;12.074;2023-03-13T01:34:06;42.17;;;29.00;;
3627;SDS011;1830;49.000;12.074;2023-03-13T01:36:34;38.57;;;25.70;;
3627;SDS011;1830;49.000;12.074;2023-03-13T01:39:01;40.67;;;25.60;;
3627;SDS011;1830;49.000;12.074;2023-03-13T01:41:29;41.10;;;27.97;;
3627;SDS011;1830;49.000;12.074;2023-03-13T01:43:56;37.90;;;26.40;;
3627;SDS011;1830;49.000;12.074;2023-03-13T01:46:23;47.67;;;28.77;;
3627;SDS011;1830;49.000;12.074;2023-03-13T01:48:52;43.67;;;27.60;;
3627;SDS011;1830;49.000;12.074;2023-03-13T01:51:24;39.93;;;26.83;;
3627;SDS011;1830;49.000;12.074;2023-03-13T01:53:55;45.93;;;28.27;;
3627;SDS011;1830;49.000;12.074;2023-03-13T01:56:29;38.97;;;24.57;;
3627;SDS011;1830;49.000;12.074;2023-03-13T01:59:01;39.87;;;26.70;;
3627;SDS011;1830;49.000;12.074;2023-03-13T02:01:29;38.57;;;26.13;;
3627;SDS011;1830;49.000;12.074;2023-03-13T02:03:58;39.50;;;26.10;;
3627;SDS011;1830;49.000;12.074;2023-03-13T02:06:26;35.33;;;25.17;;
3627;SDS011;1830;49.000;12.074;2023-03-13T02:08:57;42.50;;;26.13;;
3627;SDS011;1830;49.000;12.074;2023-03-13T02:11:31;40.27;;;27.07;;
3627;SDS011;1830;49.000;12.074;2023-03-13T02:14:04;42.80;;;27.47;;
3627;SDS011;1830;49.000;12.074;2023-03-13T02:16:32;37.77;;;24.03;;
3627;SDS011;1830;49.000;12.074;2023-03-13T02:19:00;34.83;;;25.20;;
3627;SDS011;1830;49.000;12.074;2023-03-13T02:21:38;42.10;;;25.80;;
3627;SDS011;1830;49.000;12.074;2023-03-13T02:24:11;38.50;;;26.20;;
3627;SDS011;1830;49.000;12.074;2023-03-13T02:26:44;40.87;;;26.37;;
3627;SDS011;1830;49.000;12.074;2023-03-13T02:29:11;53.17;;;28.60;;
3627;SDS011;1830;49.000;12.074;2023-03-13T02:31:42;39.80;;;26.53;;
3627;SDS011;1830;49.000;12.074;2023-03-13T02:34:10;48.37;;;28.17;;
3627;SDS011;1830;49.000;12.074;2023-03-13T02:36:40;37.03;;;26.57;;
3627;SDS011;1830;49.000;12.074;2023-03-13T02:39:08;43.17;;;28.10;;
3627;SDS011;1830;49.000;12.074;2023-03-13T02:41:36;38.30;;;26.47;;
3627;SDS011;1830;49.000;12.074;2023-03-13T02:44:05;42.90;;;28.10;;
3627;SDS011;1830;49.000;12.074;2023-03-13T02:46:35;40.10;;;26.07;;
3627;SDS011;1830;49.000;12.074;2023-03-13T02:49:15;39.50;;;27.10;;
3627;SDS011;1830;49.000;12.074;2023-03-13T02:51:45;35.87;;;25.17;;
3627;SDS011;1830;49.000;12.074;2023-03-13T02:54:13;35.60;;;24.63;;
3627;SDS011;1830;49.000;12.074;2023-03-13T02:56:44;41.50;;;25.40;;
3627;SDS011;1830;49.000;12.074;2023-03-13T02:59:17;38.37;;;24.30;;
3627;SDS011;1830;49.000;12.074;2023-03-13T03:01:44;37.67;;;26.17;;
3627;SDS011;1830;49.000;12.074;2023-03-13T03:04:11;36.17;;;24.27;;
3627;SDS011;1830;49.000;12.074;2023-03-13T03:06:37;34.70;;;24.97;;
3627;SDS011;1830;49.000;12.074;2023-03-13T03:09:04;43.10;;;26.60;;
3627;SDS011;1830;49.000;12.074;2023-03-13T03:11:31;37.83;;;25.90;;
3627;SDS011;1830;49.000;12.074;2023-03-13T03:13:58;35.37;;;23.90;;
3627;SDS011;1830;49.000;12.074;2023-03-13T03:19:02;37.90;;;25.40;;
3627;SDS011;1830;49.000;12.074;2023-03-13T03:21:30;43.93;;;26.67;;
3627;SDS011;1830;49.000;12.074;2023-03-13T03:23:57;40.50;;;25.60;;
3627;SDS011;1830;49.000;12.074;2023-03-13T03:26:24;39.87;;;25.50;;
3627;SDS011;1830;49.000;12.074;2023-03-13T03:28:51;38.97;;;25.50;;
3627;SDS011;1830;49.000;12.074;2023-03-13T03:31:17;42.13;;;26.60;;
3627;SDS011;1830;49.000;12.074;2023-03-13T03:33:46;37.03;;;25.23;;
3627;SDS011;1830;49.000;12.074;2023-03-13T03:36:13;41.37;;;26.30;;
3627;SDS011;1830;49.000;12.074;2023-03-13T03:38:41;39.03;;;25.70;;
3627;SDS011;1830;49.000;12.074;2023-03-13T03:41:09;39.97;;;26.03;;
3627;SDS011;1830;49.000;12.074;2023-03-13T03:43:38;35.20;;;24.40;;
3627;SDS011;1830;49.000;12.074;2023-03-13T03:46:05;40.00;;;26.07;;
3627;SDS011;1830;49.000;12.074;2023-03-13T03:48:32;40.33;;;27.67;;
3627;SDS011;1830;49.000;12.074;2023-03-13T03:51:01;36.30;;;25.07;;
3627;SDS011;1830;49.000;12.074;2023-03-13T03:53:27;37.67;;;26.10;;
3627;SDS011;1830;49.000;12.074;2023-03-13T03:55:54;41.40;;;27.03;;
3627;SDS011;1830;49.000;12.074;2023-03-13T03:58:28;42.43;;;26.47;;
3627;SDS011;1830;49.000;12.074;2023-03-13T04:00:55;40.27;;;25.33;;
3627;SDS011;1830;49.000;12.074;2023-03-13T04:03:23;49.40;;;26.80;;
3627;SDS011;1830;49.000;12.074;2023-03-13T04:05:51;51.97;;;28.03;;
3627;SDS011;1830;49.000;12.074;2023-03-13T04:08:19;51.50;;;27.43;;
3627;SDS011;1830;49.000;12.074;2023-03-13T04:10:48;43.70;;;27.23;;
3627;SDS011;1830;49.000;12.074;2023-03-13T04:13:15;46.40;;;27.33;;
3627;SDS011;1830;49.000;12.074;2023-03-13T04:15:42;44.20;;;28.20;;
3627;SDS011;1830;49.000;12.074;2023-03-13T04:18:09;50.60;;;28.57;;
3627;SDS011;1830;49.000;12.074;2023-03-13T04:20:36;46.83;;;29.40;;
3627;SDS011;1830;49.000;12.074;2023-03-13T04:23:02;48.93;;;28.67;;
3627;SDS011;1830;49.000;12.074;2023-03-13T04:25:31;46.27;;;27.67;;
3627;SDS011;1830;49.000;12.074;2023-03-13T04:27:57;55.43;;;28.63;;
3627;SDS011;1830;49.000;12.074;2023-03-13T04:30:24;40.30;;;26.80;;
3627;SDS011;1830;49.000;12.074;2023-03-13T04:32:51;40.17;;;25.77;;
3627;SDS011;1830;49.000;12.074;2023-03-13T04:35:18;43.83;;;24.97;;
3627;SDS011;1830;49.000;12.074;2023-03-13T04:37:45;46.07;;;26.77;;
3627;SDS011;1830;49.000;12.074;2023-03-13T04:40:12;48.20;;;26.57;;
3627;SDS011;1830;49.000;12.074;2023-03-13T04:42:44;40.77;;;25.63;;
3627;SDS011;1830;49.000;12.074;2023-03-13T04:47:57;40.20;;;25.90;;
3627;SDS011;1830;49.000;12.074;2023-03-13T04:50:24;38.10;;;24.70;;
3627;SDS011;1830;49.000;12.074;2023-03-13T04:52:51;40.63;;;25.27;;
3627;SDS011;1830;49.000;12.074;2023-03-13T04:55:19;45.17;;;23.73;;
3627;SDS011;1830;49.000;12.074;2023-03-13T04:57:47;39.07;;;25.60;;
3627;SDS011;1830;49.000;12.074;2023-03-13T05:00:14;41.17;;;24.87;;
3627;SDS011;1830;49.000;12.074;2023-03-13T05:02:41;42.73;;;26.00;;
3627;SDS011;1830;49.000;12.074;2023-03-13T05:05:08;38.13;;;24.97;;
3627;SDS011;1830;49.000;12.074;2023-03-13T05:07:35;44.80;;;26.37;;
3627;SDS011;1830;49.000;12.074;2023-03-13T05:10:02;39.67;;;24.67;;
3627;SDS011;1830;49.000;12.074;2023-03-13T05:12:29;46.50;;;25.20;;
3627;SDS011;1830;49.000;12.074;2023-03-13T05:14:57;37.60;;;24.63;;
3627;SDS011;1830;49.000;12.074;2023-03-13T05:17:29;39.07;;;25.60;;
3627;SDS011;1830;49.000;12.074;2023-03-13T05:19:56;41.43;;;24.60;;
3627;SDS011;1830;49.000;12.074;2023-03-13T05:22:22;39.70;;;25.33;;
3627;SDS011;1830;49.000;12.074;2023-03-13T05:24:49;39.87;;;23.87;;
3627;SDS011;1830;49.000;12.074;2023-03-13T05:27:16;41.47;;;24.20;;
3627;SDS011;1830;49.000;12.074;2023-03-13T05:29:43;46.63;;;26.20;;
3627;SDS011;1830;49.000;12.074;2023-03-13T05:32:11;44.73;;;25.67;;
3627;SDS011;1830;49.000;12.074;2023-03-13T05:34:38;50.17;;;24.77;;
3627;SDS011;1830;49.000;12.074;2023-03-13T05:37:04;37.27;;;23.60;;
3627;SDS011;1830;49.000;12.074;2023-03-13T05:39:31;34.80;;;22.80;;
3627;SDS011;1830;49.000;12.074;2023-03-13T05:41:58;39.43;;;24.70;;
3627;SDS011;1830;49.000;12.074;2023-03-13T05:44:25;40.53;;;23.87;;
3627;SDS011;1830;49.000;12.074;2023-03-13T05:46:52;35.03;;;22.60;;
3627;SDS011;1830;49.000;12.074;2023-03-13T05:49:20;40.37;;;23.93;;
3627;SDS011;1830;49.000;12.074;2023-03-13T05:51:47;41.37;;;24.00;;
3627;SDS011;1830;49.000;12.074;2023-03-13T05:54:13;34.80;;;23.00;;
3627;SDS011;1830;49.000;12.074;2023-03-13T05:56:40;32.53;;;21.90;;
3627;SDS011;1830;49.000;12.074;2023-03-13T05:59:08;40.83;;;22.77;;
3627;SDS011;1830;49.000;12.074;2023-03-13T06:01:35;38.77;;;22.00;;
3627;SDS011;1830;49.000;12.074;2023-03-13T06:04:02;32.93;;;20.97;;
3627;SDS011;1830;49.000;12.074;2023-03-13T06:06:30;38.90;;;20.33;;
3627;SDS011;1830;49.000;12.074;2023-03-13T06:08:57;36.33;;;20.10;;
3627;SDS011;1830;49.000;12.074;2023-03-13T06:11:24;33.97;;;21.67;;
3627;SDS011;1830;49.000;12.074;2023-03-13T06:13:51;38.57;;;20.50;;
3627;SDS011;1830;49.000;12.074;2023-03-13T06:16:18;30.07;;;20.07;;
3627;SDS011;1830;49.000;12.074;2023-03-13T06:18:45;38.33;;;20.90;;
3627;SDS011;1830;49.000;12.074;2023-03-13T06:21:11;35.30;;;20.60;;
3627;SDS011;1830;49.000;12.074;2023-03-13T06:23:40;29.53;;;19.20;;
3627;SDS011;1830;49.000;12.074;2023-03-13T06:26:07;27.60;;;19.23;;
3627;SDS011;1830;49.000;12.074;2023-03-13T06:28:34;38.20;;;20.30;;
3627;SDS011;1830;49.000;12.074;2023-03-13T06:31:01;32.07;;;19.90;;
3627;SDS011;1830;49.000;12.074;2023-03-13T06:33:28;26.80;;;19.17;;
3627;SDS011;1830;49.000;12.074;2023-03-13T06:35:55;33.53;;;18.20;;
3627;SDS011;1830;49.000;12.074;2023-03-13T06:38:22;28.20;;;19.03;;
3627;SDS011;1830;49.000;12.074;2023-03-13T06:40:51;34.10;;;19.40;;
3627;SDS011;1830;49.000;12.074;2023-03-13T06:43:17;27.97;;;18.77;;
3627;SDS011;1830;49.000;12.074;2023-03-13T06:45:47;28.47;;;18.50;;
3627;SDS011;1830;49.000;12.074;2023-03-13T06:48:15;29.03;;;17.80;;
3627;SDS011;1830;49.000;12.074;2023-03-13T06:50:41;26.40;;;18.57;;
3627;SDS011;1830;49.000;12.074;2023-03-13T06:53:09;28.70;;;17.67;;
3627;SDS011;1830;49.000;12.074;2023-03-13T06:55:39;30.60;;;18.60;;
3627;SDS011;1830;49.000;12.074;2023-03-13T06:58:08;26.07;;;17.40;;
3627;SDS011;1830;49.000;12.074;2023-03-13T07:00:34;29.80;;;18.33;;
3627;SDS011;1830;49.000;12.074;2023-03-13T07:03:03;32.57;;;18.13;;
3627;SDS011;1830;49.000;12.074;2023-03-13T07:05:31;40.17;;;18.60;;
3627;SDS011;1830;49.000;12.074;2023-03-13T07:07:58;29.70;;;17.87;;
3627;SDS011;1830;49.000;12.074;2023-03-13T07:10:25;29.40;;;18.37;;
3627;SDS011;1830;49.000;12.074;2023-03-13T07:12:51;29.97;;;17.60;;
3627;SDS011;1830;49.000;12.074;2023-03-13T07:15:20;25.03;;;17.97;;
3627;SDS011;1830;49.000;12.074;2023-03-13T07:17:46;25.43;;;16.37;;
3627;SDS011;1830;49.000;12.074;2023-03-13T07:20:13;27.37;;;17.43;;
3627;SDS011;1830;49.000;12.074;2023-03-13T07:22:40;29.50;;;16.17;;
3627;SDS011;1830;49.000;12.074;2023-03-13T07:25:07;25.50;;;15.43;;
3627;SDS011;1830;49.000;12.074;2023-03-13T07:27:35;30.90;;;16.87;;
3627;SDS011;1830;49.000;12.074;2023-03-13T07:30:02;22.20;;;16.27;;
3627;SDS011;1830;49.000;12.074;2023-03-13T07:32:31;26.60;;;16.60;;
3627;SDS011;1830;49.000;12.074;2023-03-13T07:34:58;24.33;;;15.90;;
3627;SDS011;1830;49.000;12.074;2023-03-13T07:37:27;34.30;;;22.60;;
3627;SDS011;1830;49.000;12.074;2023-03-13T07:39:54;27.90;;;16.80;;
3627;SDS011;1830;49.000;12.074;2023-03-13T07:42:20;28.67;;;16.00;;
3627;SDS011;1830;49.000;12.074;2023-03-13T07:44:47;31.03;;;16.67;;
3627;SDS011;1830;49.000;12.074;2023-03-13T07:47:14;26.70;;;16.60;;
3627;SDS011;1830;49.000;12.074;2023-03-13T07:49:42;21.13;;;15.37;;
3627;SDS011;1830;49.000;12.074;2023-03-13T07:52:10;27.03;;;16.17;;
3627;SDS011;1830;49.000;12.074;2023-03-13T07:54:37;22.20;;;16.10;;
3627;SDS011;1830;49.000;12.074;2023-03-13T07:57:04;28.47;;;17.43;;
3627;SDS011;1830;49.000;12.074;2023-03-13T07:59:31;30.63;;;16.83;;
3627;SDS011;1830;49.000;12.074;2023-03-13T08:01:58;31.90;;;17.07;;
3627;SDS011;1830;49.000;12.074;2023-03-13T08:04:24;24.23;;;16.10;;
3627;SDS011;1830;49.000;12.074;2023-03-13T08:06:52;27.37;;;15.77;;
3627;SDS011;1830;49.000;12.074;2023-03-13T08:09:20;32.70;;;18.57;;
3627;SDS011;1830;49.000;12.074;2023-03-13T08:11:47;20.90;;;14.90;;
3627;SDS011;1830;49.000;12.074;2023-03-13T08:14:14;22.83;;;16.27;;
3627;SDS011;1830;49.000;12.074;2023-03-13T08:16:41;27.90;;;15.60;;
3627;SDS011;1830;49.000;12.074;2023-03-13T08:19:08;22.47;;;15.67;;
3627;SDS011;1830;49.000;12.074;2023-03-13T08:21:35;22.60;;;14.97;;
3627;SDS011;1830;49.000;12.074;2023-03-13T08:24:05;23.00;;;15.37;;
3627;SDS011;1830;49.000;12.074;2023-03-13T08:26:35;24.07;;;15.40;;
3627;SDS011;1830;49.000;12.074;2023-03-13T08:29:04;22.73;;;15.70;;
3627;SDS011;1830;49.000;12.074;2023-03-13T08:31:33;22.07;;;15.80;;
3627;SDS011;1830;49.000;12.074;2023-03-13T08:34:01;20.63;;;16.10;;
3627;SDS011;1830;49.000;12.074;2023-03-13T08:36:29;22.13;;;14.90;;
3627;SDS011;1830;49.000;12.074;2023-03-13T08:38:58;26.10;;;16.83;;
3627;SDS011;1830;49.000;12.074;2023-03-13T08:41:28;27.20;;;14.77;;
3627;SDS011;1830;49.000;12.074;2023-03-13T08:43:57;19.97;;;14.30;;
3627;SDS011;1830;49.000;12.074;2023-03-13T08:46:27;18.30;;;14.23;;
3627;SDS011;1830;49.000;12.074;2023-03-13T08:48:55;22.17;;;14.90;;
3627;SDS011;1830;49.000;12.074;2023-03-13T08:51:22;18.30;;;13.17;;
3627;SDS011;1830;49.000;12.074;2023-03-13T08:53:51;39.23;;;13.23;;
3627;SDS011;1830;49.000;12.074;2023-03-13T08:56:20;17.20;;;14.23;;
3627;SDS011;1830;49.000;12.074;2023-03-13T08:58:50;18.40;;;14.23;;
3627;SDS011;1830;49.000;12.074;2023-03-13T09:01:18;15.40;;;13.17;;
3627;SDS011;1830;49.000;12.074;2023-03-13T09:03:46;15.77;;;13.73;;
3627;SDS011;1830;49.000;12.074;2023-03-13T09:06:13;16.80;;;13.20;;
3627;SDS011;1830;49.000;12.074;2023-03-13T09:08:40;18.60;;;12.10;;
3627;SDS011;1830;49.000;12.074;2023-03-13T09:11:08;18.17;;;12.70;;
3627;SDS011;1830;49.000;12.074;2023-03-13T09:13:37;14.97;;;11.50;;
3627;SDS011;1830;49.000;12.074;2023-03-13T09:16:07;14.13;;;11.40;;
3627;SDS011;1830;49.000;12.074;2023-03-13T09:18:36;17.53;;;11.27;;
3627;SDS011;1830;49.000;12.074;2023-03-13T09:21:04;16.33;;;11.60;;
3627;SDS011;1830;49.000;12.074;2023-03-13T09:23:33;14.70;;;10.90;;
3627;SDS011;1830;49.000;12.074;2023-03-13T09:26:00;12.53;;;9.90;;
3627;SDS011;1830;49.000;12.074;2023-03-13T09:28:27;15.00;;;10.57;;
3627;SDS011;1830;49.000;12.074;2023-03-13T09:30:54;12.60;;;9.30;;
3627;SDS011;1830;49.000;12.074;2023-03-13T09:33:22;13.20;;;9.47;;
3627;SDS011;1830;49.000;12.074;2023-03-13T09:35:49;16.23;;;10.60;;
3627;SDS011;1830;49.000;12.074;2023-03-13T09:38:16;14.10;;;11.07;;
3627;SDS011;1830;49.000;12.074;2023-03-13T09:40:44;13.20;;;9.53;;
3627;SDS011;1830;49.000;12.074;2023-03-13T09:43:16;15.40;;;10.80;;
3627;SDS011;1830;49.000;12.074;2023-03-13T09:45:49;12.73;;;9.77;;
3627;SDS011;1830;49.000;12.074;2023-03-13T09:48:27;14.20;;;10.27;;
3627;SDS011;1830;49.000;12.074;2023-03-13T09:50:58;13.10;;;10.33;;
3627;SDS011;1830;49.000;12.074;2023-03-13T09:53:35;12.43;;;10.57;;
3627;SDS011;1830;49.000;12.074;2023-03-13T09:56:11;13.83;;;11.50;;
3627;SDS011;1830;49.000;12.074;2023-03-13T09:58:43;12.40;;;10.90;;
3627;SDS011;1830;49.000;12.074;2023-03-13T10:01:16;14.80;;;10.33;;
3627;SDS011;1830;49.000;12.074;2023-03-13T10:03:53;15.53;;;11.03;;
3627;SDS011;1830;49.000;12.074;2023-03-13T10:06:26;17.07;;;10.93;;
3627;SDS011;1830;49.000;12.074;2023-03-13T10:08:58;14.13;;;10.33;;
3627;SDS011;1830;49.000;12.074;2023-03-13T10:11:26;15.23;;;10.20;;
3627;SDS011;1830;49.000;12.074;2023-03-13T10:13:57;11.23;;;9.40;;
3627;SDS011;1830;49.000;12.074;2023-03-13T10:16:29;11.90;;;9.50;;
3627;SDS011;1830;49.000;12.074;2023-03-13T10:19:07;12.30;;;9.43;;
3627;SDS011;1830;49.000;12.074;2023-03-13T10:21:37;11.63;;;9.03;;
3627;SDS011;1830;49.000;12.074;2023-03-13T10:24:10;11.20;;;8.80;;
3627;SDS011;1830;49.000;12.074;2023-03-13T10:26:42;15.20;;;9.27;;
3627;SDS011;1830;49.000;12.074;2023-03-13T10:29:19;19.10;;;10.30;;
3627;SDS011;1830;49.000;12.074;2023-03-13T10:31:49;14.40;;;9.80;;
3627;SDS011;1830;49.000;12.074;2023-03-13T10:34:23;21.43;;;9.87;;
3627;SDS011;1830;49.000;12.074;2023-03-13T10:36:54;12.67;;;9.90;;
3627;SDS011;1830;49.000;12.074;2023-03-13T10:39:23;11.03;;;8.80;;
3627;SDS011;1830;49.000;12.074;2023-03-13T10:41:54;10.93;;;8.20;;
3627;SDS011;1830;49.000;12.074;2023-03-13T10:44:23;12.33;;;8.80;;
3627;SDS011;1830;49.000;12.074;2023-03-13T10:46:57;11.17;;;8.40;;
3627;SDS011;1830;49.000;12.074;2023-03-13T10:49:27;10.00;;;8.20;;
3627;SDS011;1830;49.000;12.074;2023-03-13T10:51:56;9.80;;;7.97;;
3627;SDS011;1830;49.000;12.074;2023-03-13T10:54:25;14.37;;;8.27;;
3627;SDS011;1830;49.000;12.074;2023-03-13T10:57:06;9.13;;;7.60;;
3627;SDS011;1830;49.000;12.074;2023-03-13T10:59:38;10.70;;;7.80;;
3627;SDS011;1830;49.000;12.074;2023-03-13T11:02:17;8.77;;;7.87;;
3627;SDS011;1830;49.000;12.074;2023-03-13T11:04:48;9.60;;;8.50;;
3627;SDS011;1830;49.000;12.074;2023-03-13T11:07:19;18.30;;;8.20;;
3627;SDS011;1830;49.000;12.074;2023-03-13T11:09:56;10.83;;;8.10;;
3627;SDS011;1830;49.000;12.074;2023-03-13T11:12:24;8.10;;;7.10;;
3627;SDS011;1830;49.000;12.074;2023-03-13T11:14:55;8.90;;;8.00;;
3627;SDS011;1830;49.000;12.074;2023-03-13T11:17:23;10.23;;;7.13;;
3627;SDS011;1830;49.000;12.074;2023-03-13T11:20:01;11.90;;;7.00;;
3627;SDS011;1830;49.000;12.074;2023-03-13T11:22:36;8.17;;;7.33;;
3627;SDS011;1830;49.000;12.074;2023-03-13T11:25:15;11.80;;;7.17;;
3627;SDS011;1830;49.000;12.074;2023-03-13T11:27:48;8.03;;;6.90;;
3627;SDS011;1830;49.000;12.074;2023-03-13T11:30:33;13.40;;;8.90;;
3627;SDS011;1830;49.000;12.074;2023-03-13T11:33:11;8.90;;;7.40;;
3627;SDS011;1830;49.000;12.074;2023-03-13T11:35:52;8.57;;;7.67;;
3627;SDS011;1830;49.000;12.074;2023-03-13T11:38:26;8.17;;;7.37;;
3627;SDS011;1830;49.000;12.074;2023-03-13T11:41:00;11.50;;;7.40;;
3627;SDS011;1830;49.000;12.074;2023-03-13T11:43:41;12.07;;;6.67;;
3627;SDS011;1830;49.000;12.074;2023-03-13T11:46:21;8.27;;;6.83;;
3627;SDS011;1830;49.000;12.074;2023-03-13T11:49:07;18.70;;;7.60;;
3627;SDS011;1830;49.000;12.074;2023-03-13T11:51:55;10.33;;;6.73;;
3627;SDS011;1830;49.000;12.074;2023-03-13T11:54:37;10.37;;;7.47;;
3627;SDS011;1830;49.000;12.074;2023-03-13T11:57:17;10.50;;;7.37;;
3627;SDS011;1830;49.000;12.074;2023-03-13T11:59:51;12.50;;;7.60;;
3627;SDS011;1830;49.000;12.074;2023-03-13T12:02:35;10.83;;;7.10;;
3627;SDS011;1830;49.000;12.074;2023-03-13T12:05:06;12.23;;;7.70;;
3627;SDS011;1830;49.000;12.074;2023-03-13T12:07:38;11.53;;;8.03;;
3627;SDS011;1830;49.000;12.074;2023-03-13T12:10:10;15.97;;;8.20;;
3627;SDS011;1830;49.000;12.074;2023-03-13T12:12:40;11.07;;;7.30;;
3627;SDS011;1830;49.000;12.074;2023-03-13T12:15:17;11.13;;;7.10;;
3627;SDS011;1830;49.000;12.074;2023-03-13T12:17:49;15.30;;;6.90;;
3627;SDS011;1830;49.000;12.074;2023-03-13T12:20:21;14.23;;;7.10;;
3627;SDS011;1830;49.000;12.074;2023-03-13T12:22:53;11.43;;;7.20;;
3627;SDS011;1830;49.000;12.074;2023-03-13T12:25:29;16.13;;;7.60;;
3627;SDS011;1830;49.000;12.074;2023-03-13T12:28:03;9.97;;;6.90;;
3627;SDS011;1830;49.000;12.074;2023-03-13T12:30:41;13.83;;;7.10;;
3627;SDS011;1830;49.000;12.074;2023-03-13T12:33:13;7.93;;;6.27;;
3627;SDS011;1830;49.000;12.074;2023-03-13T12:35:45;13.73;;;6.43;;
3627;SDS011;1830;49.000;12.074;2023-03-13T12:38:21;19.83;;;7.00;;
3627;SDS011;1830;49.000;12.074;2023-03-13T12:40:56;8.07;;;6.50;;
3627;SDS011;1830;49.000;12.074;2023-03-13T12:43:39;11.23;;;6.30;;
3627;SDS011;1830;49.000;12.074;2023-03-13T12:46:18;17.00;;;8.47;;
3627;SDS011;1830;49.000;12.074;2023-03-13T12:48:58;16.50;;;8.67;;
3627;SDS011;1830;49.000;12.074;2023-03-13T12:51:45;11.77;;;6.80;;
3627;SDS011;1830;49.000;12.074;2023-03-13T12:54:31;15.17;;;6.77;;
3627;SDS011;1830;49.000;12.074;2023-03-13T12:57:15;10.03;;;6.33;;
3627;SDS011;1830;49.000;12.074;2023-03-13T12:59:51;18.47;;;7.50;;
3627;SDS011;1830;49.000;12.074;2023-03-13T13:02:23;9.80;;;6.80;;
3627;SDS011;1830;49.000;12.074;2023-03-13T13:04:53;11.50;;;6.10;;
3627;SDS011;1830;49.000;12.074;2023-03-13T13:07:23;9.93;;;6.60;;
3627;SDS011;1830;49.000;12.074;2023-03-13T13:10:01;10.17;;;6.20;;
3627;SDS011;1830;49.000;12.074;2023-03-13T13:12:40;6.00;;;5.40;;
3627;SDS011;1830;49.000;12.074;2023-03-13T13:15:14;7.10;;;5.93;;
3627;SDS011;1830;49.000;12.074;2023-03-13T13:20:39;13.07;;;6.30;;
3627;SDS011;1830;49.000;12.074;2023-03-13T13:23:35;11.33;;;6.83;;
3627;SDS011;1830;49.000;12.074;2023-03-13T13:32:28;12.63;;;6.30;;
3627;SDS011;1830;49.000;12.074;2023-03-13T13:35:00;11.43;;;6.40;;
3627;SDS011;1830;49.000;12.074;2023-03-13T13:37:30;10.73;;;6.50;;
3627;SDS011;1830;49.000;12.074;2023-03-13T13:40:17;9.47;;;6.30;;
3627;SDS011;1830;49.000;12.074;2023-03-13T13:42:52;24.83;;;6.00;;
3627;SDS011;1830;49.000;12.074;2023-03-13T13:45:21;8.87;;;5.83;;
3627;SDS011;1830;49.000;12.074;2023-03-13T13:48:21;13.47;;;6.00;;
3627;SDS011;1830;49.000;12.074;2023-03-13T13:51:18;7.47;;;5.50;;
3627;SDS011;1830;49.000;12.074;2023-03-13T13:53:53;6.93;;;5.40;;
3627;SDS011;1830;49.000;12.074;2023-03-13T13:56:33;10.07;;;5.63;;
3627;SDS011;1830;49.000;12.074;2023-03-13T13:59:15;9.10;;;5.80;;
3627;SDS011;1830;49.000;12.074;2023-03-13T14:05:02;11.50;;;5.57;;
3627;SDS011;1830;49.000;12.074;2023-03-13T14:07:36;11.30;;;5.80;;
3627;SDS011;1830;49.000;12.074;2023-03-13T14:10:20;7.63;;;4.63;;
3627;SDS011;1830;49.000;12.074;2023-03-13T14:13:08;9.23;;;4.77;;
3627;SDS011;1830;49.000;12.074;2023-03-13T14:15:40;7.00;;;6.13;;
3627;SDS011;1830;49.000;12.074;2023-03-13T14:18:09;8.73;;;5.07;;
3627;SDS011;1830;49.000;12.074;2023-03-13T14:20:41;16.30;;;6.00;;
3627;SDS011;1830;49.000;12.074;2023-03-13T14:23:27;7.40;;;5.37;;
3627;SDS011;1830;49.000;12.074;2023-03-13T14:25:57;20.30;;;6.30;;
3627;SDS011;1830;49.000;12.074;2023-03-13T14:28:24;7.03;;;5.83;;
3627;SDS011;1830;49.000;12.074;2023-03-13T14:30:53;12.97;;;5.83;;
3627;SDS011;1830;49.000;12.074;2023-03-13T14:33:20;6.30;;;5.03;;
3627;SDS011;1830;49.000;12.074;2023-03-13T14:35:49;9.07;;;5.97;;
3627;SDS011;1830;49.000;12.074;2023-03-13T14:38:17;8.43;;;6.30;;
3627;SDS011;1830;49.000;12.074;2023-03-13T14:40:45;8.03;;;5.17;;
3627;SDS011;1830;49.000;12.074;2023-03-13T14:43:19;10.00;;;5.33;;
3627;SDS011;1830;49.000;12.074;2023-03-13T14:45:50;9.10;;;5.47;;
3627;SDS011;1830;49.000;12.074;2023-03-13T14:48:18;8.07;;;6.00;;
3627;SDS011;1830;49.000;12.074;2023-03-13T14:50:48;7.07;;;5.97;;
3627;SDS011;1830;49.000;12.074;2023-03-13T14:53:20;8.60;;;6.00;;
3627;SDS011;1830;49.000;12.074;2023-03-13T14:55:47;9.70;;;5.70;;
3627;SDS011;1830;49.000;12.074;2023-03-13T14:58:34;13.20;;;5.43;;
3627;SDS011;1830;49.000;12.074;2023-03-13T15:01:10;10.70;;;6.87;;
3627;SDS011;1830;49.000;12.074;2023-03-13T15:03:42;7.77;;;6.40;;
3627;SDS011;1830;49.000;12.074;2023-03-13T15:06:17;11.50;;;5.93;;
3627;SDS011;1830;49.000;12.074;2023-03-13T15:08:47;13.23;;;6.00;;
3627;SDS011;1830;49.000;12.074;2023-03-13T15:11:19;8.27;;;5.83;;
3627;SDS011;1830;49.000;12.074;2023-03-13T15:13:54;10.87;;;6.00;;
3627;SDS011;1830;49.000;12.074;2023-03-13T15:16:22;8.43;;;5.73;;